createdAt,value
2018-05-14T00:02:10.045Z,3.90
2018-05-14T00:04:38.353Z,4.57
2018-05-14T00:07:06.684Z,4.13
2018-05-14T00:09:34.995Z,3.90
2018-05-14T00:12:03.308Z,3.90
2018-05-14T00:14:31.613Z,3.97
2018-05-14T00:16:59.946Z,4.17
2018-05-14T00:19:28.261Z,3.50
2018-05-14T00:21:56.558Z,4.30
2018-05-14T00:24:24.886Z,3.60
2018-05-14T00:26:53.189Z,4.17
2018-05-14T00:29:21.519Z,3.90
2018-05-14T00:31:50.583Z,3.70
2018-05-14T00:34:18.913Z,3.70
2018-05-14T00:36:47.982Z,4.13
2018-05-14T00:39:16.312Z,3.67
2018-05-14T00:41:44.610Z,4.07
2018-05-14T00:44:12.950Z,3.53
2018-05-14T00:46:41.279Z,3.93
2018-05-14T00:49:09.607Z,3.83
2018-05-14T00:51:39.415Z,4.07
2018-05-14T00:54:07.760Z,4.07
2018-05-14T00:56:36.064Z,3.77
2018-05-14T00:59:05.152Z,4.23
2018-05-14T01:01:33.480Z,4.10
2018-05-14T01:04:01.909Z,4.03
2018-05-14T01:06:30.308Z,4.27
2018-05-14T01:08:58.619Z,3.93
2018-05-14T01:11:27.789Z,4.30
2018-05-14T01:13:56.262Z,4.07
2018-05-14T01:16:24.648Z,4.50
2018-05-14T01:18:54.790Z,4.13
2018-05-14T01:21:23.989Z,4.97
2018-05-14T01:23:54.383Z,4.00
2018-05-14T01:26:23.890Z,4.00
2018-05-14T01:28:53.316Z,4.23
2018-05-14T01:31:21.781Z,4.60
2018-05-14T01:33:50.141Z,4.80
2018-05-14T01:36:18.441Z,4.37
2018-05-14T01:38:47.450Z,4.70
2018-05-14T01:41:15.749Z,4.23
2018-05-14T01:43:44.078Z,3.83
2018-05-14T01:46:12.418Z,3.90
2018-05-14T01:48:40.736Z,4.00
2018-05-14T01:51:09.042Z,4.67
2018-05-14T01:53:38.345Z,4.10
2018-05-14T01:56:06.654Z,4.57
2018-05-14T01:58:35.059Z,4.47
2018-05-14T02:01:03.372Z,4.57
2018-05-14T02:03:31.689Z,4.23
2018-05-14T02:06:00.988Z,4.33
2018-05-14T02:08:29.310Z,4.23
2018-05-14T02:10:58.415Z,4.60
2018-05-14T02:13:27.503Z,4.10
2018-05-14T02:15:55.826Z,4.03
2018-05-14T02:18:24.157Z,4.80
2018-05-14T02:20:52.483Z,4.20
2018-05-14T02:23:20.791Z,5.37
2018-05-14T02:25:49.110Z,4.83
2018-05-14T02:28:18.175Z,5.07
2018-05-14T02:30:46.510Z,4.40
2018-05-14T02:33:14.835Z,4.80
2018-05-14T02:35:43.127Z,4.83
2018-05-14T02:38:11.455Z,5.23
2018-05-14T02:40:39.780Z,5.03
2018-05-14T02:43:09.152Z,5.63
2018-05-14T02:45:37.453Z,4.93
2018-05-14T02:48:05.773Z,5.50
2018-05-14T02:50:34.074Z,4.77
2018-05-14T02:53:03.193Z,5.37
2018-05-14T02:55:31.506Z,4.70
2018-05-14T02:57:59.864Z,5.17
2018-05-14T03:00:28.204Z,5.23
2018-05-14T03:02:56.547Z,5.80
2018-05-14T03:05:24.874Z,4.90
2018-05-14T03:07:53.984Z,5.87
2018-05-14T03:10:23.130Z,5.67
2018-05-14T03:12:52.162Z,5.43
2018-05-14T03:15:20.510Z,5.67
2018-05-14T03:17:48.817Z,5.07
2018-05-14T03:20:17.151Z,5.17
2018-05-14T03:22:45.487Z,5.13
2018-05-14T03:25:14.596Z,5.37
2018-05-14T03:27:43.673Z,5.43
2018-05-14T03:30:12.012Z,5.00
2018-05-14T03:32:40.315Z,6.03
2018-05-14T03:35:08.651Z,5.60
2018-05-14T03:37:37.760Z,5.53
2018-05-14T03:40:06.109Z,5.43
2018-05-14T03:42:34.516Z,6.00
2018-05-14T03:45:03.595Z,5.30
2018-05-14T03:47:31.936Z,5.03
2018-05-14T03:50:00.254Z,6.07
2018-05-14T03:52:29.357Z,5.50
2018-05-14T03:54:58.430Z,5.67
2018-05-14T03:57:26.750Z,5.53
2018-05-14T04:00:07.759Z,5.27
2018-05-14T04:02:47.967Z,5.67
2018-05-14T04:05:18.666Z,6.13
2018-05-14T04:07:47.075Z,6.00
2018-05-14T04:10:16.153Z,6.00
2018-05-14T04:12:44.507Z,6.37
2018-05-14T04:15:12.820Z,6.20
2018-05-14T04:17:41.155Z,5.60
2018-05-14T04:20:09.585Z,6.00
2018-05-14T04:22:37.917Z,6.90
2018-05-14T04:25:06.235Z,6.03
2018-05-14T04:27:34.569Z,5.93
2018-05-14T04:30:03.677Z,6.03
2018-05-14T04:32:31.978Z,6.10
2018-05-14T04:35:00.333Z,6.73
2018-05-14T04:37:28.655Z,6.23
2018-05-14T04:39:57.972Z,5.57
2018-05-14T04:42:26.275Z,5.47
2018-05-14T04:44:54.848Z,5.80
2018-05-14T04:47:23.151Z,5.67
2018-05-14T04:49:52.250Z,6.00
2018-05-14T04:52:21.328Z,5.70
2018-05-14T04:54:50.170Z,6.23
2018-05-14T04:57:18.533Z,5.83
2018-05-14T04:59:48.816Z,5.43
2018-05-14T05:02:17.299Z,7.17
2018-05-14T05:04:46.841Z,8.10
2018-05-14T05:07:15.749Z,6.47
2018-05-14T05:09:45.232Z,6.27
2018-05-14T05:12:15.063Z,5.55
2018-05-14T05:14:44.142Z,5.80
2018-05-14T05:17:12.508Z,5.43
2018-05-14T05:19:41.740Z,5.80
2018-05-14T05:22:10.067Z,6.03
2018-05-14T05:24:38.389Z,5.57
2018-05-14T05:27:06.878Z,6.47
2018-05-14T05:29:35.207Z,5.93
2018-05-14T05:32:03.543Z,5.90
2018-05-14T05:34:31.865Z,5.53
2018-05-14T05:37:00.191Z,5.47
2018-05-14T05:39:28.516Z,5.53
2018-05-14T05:41:56.807Z,5.10
2018-05-14T05:44:25.151Z,5.23
2018-05-14T05:46:53.457Z,5.17
2018-05-14T05:49:22.553Z,5.23
2018-05-14T05:51:51.619Z,5.60
2018-05-14T05:54:19.972Z,5.47
2018-05-14T05:56:48.278Z,5.43
2018-05-14T05:59:16.606Z,5.07
2018-05-14T06:01:44.918Z,5.17
2018-05-14T06:04:13.271Z,5.30
2018-05-14T06:06:41.582Z,4.47
2018-05-14T06:09:09.874Z,4.83
2018-05-14T06:11:38.197Z,5.50
2018-05-14T06:14:07.262Z,5.10
2018-05-14T06:16:35.577Z,4.30
2018-05-14T06:19:04.658Z,5.57
2018-05-14T06:21:32.980Z,5.53
2018-05-14T06:24:01.270Z,4.80
2018-05-14T06:26:29.587Z,5.37
2018-05-14T06:28:57.896Z,4.90
2018-05-14T06:31:26.976Z,4.97
2018-05-14T06:33:55.275Z,5.40
2018-05-14T06:36:24.378Z,4.63
2018-05-14T06:38:53.461Z,5.37
2018-05-14T06:41:22.537Z,5.00
2018-05-14T06:43:50.966Z,4.63
2018-05-14T06:46:20.041Z,4.97
2018-05-14T06:48:48.371Z,4.57
2018-05-14T06:51:16.687Z,4.50
2018-05-14T06:53:45.013Z,4.70
2018-05-14T06:56:14.106Z,4.47
2018-05-14T06:58:43.189Z,4.60
2018-05-14T07:01:12.279Z,4.73
2018-05-14T07:03:40.579Z,4.57
2018-05-14T07:06:09.655Z,4.33
2018-05-14T07:08:37.962Z,4.20
2018-05-14T07:11:07.105Z,4.60
2018-05-14T07:13:35.406Z,4.10
2018-05-14T07:16:03.769Z,4.73
2018-05-14T07:18:32.077Z,4.37
2018-05-14T07:21:00.438Z,5.20
2018-05-14T07:23:28.784Z,3.83
2018-05-14T07:25:57.118Z,4.20
2018-05-14T07:28:25.427Z,4.47
2018-05-14T07:30:54.522Z,3.70
2018-05-14T07:33:24.700Z,3.97
2018-05-14T07:35:53.011Z,4.07
2018-05-14T07:38:21.335Z,4.10
2018-05-14T07:40:49.697Z,3.72
2018-05-14T07:43:18.800Z,4.15
2018-05-14T07:45:47.107Z,3.85
2018-05-14T07:48:15.434Z,4.15
2018-05-14T07:50:44.520Z,4.00
2018-05-14T07:53:12.837Z,4.20
2018-05-14T07:55:41.921Z,3.42
2018-05-14T07:58:10.237Z,3.67
2018-05-14T08:00:38.578Z,3.50
2018-05-14T08:03:06.888Z,3.80
2018-05-14T08:05:36.352Z,3.60
2018-05-14T08:08:05.367Z,3.92
2018-05-14T08:10:35.640Z,3.50
2018-05-14T08:13:04.094Z,4.18
2018-05-14T08:15:34.175Z,3.70
2018-05-14T08:18:02.671Z,3.65
2018-05-14T08:20:31.033Z,3.70
2018-05-14T08:22:59.589Z,3.70
2018-05-14T08:25:28.241Z,3.75
2018-05-14T08:27:56.717Z,3.45
2018-05-14T08:30:25.566Z,3.42
2018-05-14T08:32:54.003Z,3.65
2018-05-14T08:35:22.320Z,3.22
2018-05-14T08:37:50.653Z,3.90
2018-05-14T08:40:18.963Z,3.55
2018-05-14T08:42:48.077Z,3.55
2018-05-14T08:45:16.379Z,4.40
2018-05-14T08:47:44.711Z,4.00
2018-05-14T08:50:13.676Z,3.65
2018-05-14T08:52:42.002Z,3.70
2018-05-14T08:55:11.066Z,3.67
2018-05-14T08:57:39.489Z,3.50
2018-05-14T09:00:07.731Z,3.75
2018-05-14T09:02:37.554Z,4.10
2018-05-14T09:05:05.910Z,4.00
2018-05-14T09:07:34.223Z,4.03
2018-05-14T09:10:02.565Z,3.72
2018-05-14T09:12:30.876Z,3.80
2018-05-14T09:14:59.212Z,3.25
2018-05-14T09:17:27.521Z,3.90
2018-05-14T09:19:55.839Z,3.80
2018-05-14T09:22:24.919Z,3.33
2018-05-14T09:24:53.244Z,3.08
2018-05-14T09:27:21.612Z,3.77
2018-05-14T09:29:50.717Z,3.70
2018-05-14T09:32:19.034Z,3.80
2018-05-14T09:34:47.362Z,3.70
2018-05-14T09:37:16.434Z,3.55
2018-05-14T09:39:44.783Z,3.30
2018-05-14T09:42:13.082Z,3.70
2018-05-14T09:44:41.385Z,3.92
2018-05-14T09:47:09.715Z,3.50
2018-05-14T09:49:38.019Z,3.58
2018-05-14T09:52:06.362Z,3.65
2018-05-14T09:54:34.682Z,3.37
2018-05-14T09:57:03.004Z,3.83
2018-05-14T09:59:31.343Z,3.53
2018-05-14T10:01:59.706Z,3.33
2018-05-14T10:04:28.008Z,3.42
2018-05-14T10:06:56.407Z,3.85
2018-05-14T10:09:24.735Z,3.30
2018-05-14T10:11:53.814Z,3.70
2018-05-14T10:14:22.130Z,3.80
2018-05-14T10:16:50.455Z,4.15
2018-05-14T10:19:18.778Z,3.17
2018-05-14T10:21:47.094Z,3.47
2018-05-14T10:24:15.431Z,3.65
2018-05-14T10:26:44.509Z,3.17
2018-05-14T10:29:14.441Z,3.10
2018-05-14T10:31:43.528Z,3.53
2018-05-14T10:34:11.853Z,3.25
2018-05-14T10:36:40.159Z,3.58
2018-05-14T10:39:08.511Z,3.37
2018-05-14T10:41:36.827Z,3.33
2018-05-14T10:44:05.920Z,2.90
2018-05-14T10:49:11.350Z,3.58
2018-05-14T10:51:39.660Z,3.30
2018-05-14T10:54:07.985Z,3.60
2018-05-14T10:56:37.079Z,3.75
2018-05-14T10:59:06.137Z,3.78
2018-05-14T11:01:34.454Z,3.30
2018-05-14T11:04:02.811Z,3.33
2018-05-14T11:06:31.111Z,2.93
2018-05-14T11:09:00.182Z,3.33
2018-05-14T11:11:28.530Z,3.60
2018-05-14T11:13:56.835Z,3.50
2018-05-14T11:16:25.156Z,3.33
2018-05-14T11:18:53.496Z,3.37
2018-05-14T11:21:22.904Z,3.07
2018-05-14T11:23:51.211Z,2.90
2018-05-14T11:26:20.815Z,3.15
2018-05-14T11:28:49.146Z,3.47
2018-05-14T11:31:19.011Z,3.47
2018-05-14T11:33:47.539Z,3.00
2018-05-14T11:36:17.554Z,3.62
2018-05-14T11:38:46.631Z,3.00
2018-05-14T11:41:16.848Z,2.95
2018-05-14T11:43:45.180Z,3.00
2018-05-14T11:46:14.340Z,3.00
2018-05-14T11:48:42.838Z,3.37
2018-05-14T11:51:12.870Z,3.10
2018-05-14T11:53:41.965Z,3.00
2018-05-14T11:56:11.095Z,3.30
2018-05-14T11:58:39.456Z,3.50
2018-05-14T12:01:08.548Z,3.17
2018-05-14T12:03:37.623Z,3.70
2018-05-14T12:06:05.948Z,3.63
2018-05-14T12:08:34.276Z,4.00
2018-05-14T12:11:02.617Z,3.43
2018-05-14T12:13:30.918Z,3.57
2018-05-14T12:15:59.403Z,3.80
2018-05-14T12:18:27.714Z,3.33
2018-05-14T12:20:56.808Z,2.87
2018-05-14T12:23:25.114Z,2.93
2018-05-14T12:25:54.219Z,3.50
2018-05-14T12:28:23.311Z,3.10
2018-05-14T12:30:52.410Z,3.57
2018-05-14T12:33:20.723Z,3.50
2018-05-14T12:35:49.072Z,3.17
2018-05-14T12:38:17.383Z,3.00
2018-05-14T12:40:45.725Z,3.07
2018-05-14T12:43:14.033Z,3.10
2018-05-14T12:45:42.366Z,3.53
2018-05-14T12:48:10.764Z,3.70
2018-05-14T12:50:39.071Z,3.13
2018-05-14T12:53:08.206Z,3.40
2018-05-14T12:55:36.515Z,3.33
2018-05-14T12:58:04.840Z,3.23
2018-05-14T13:00:33.162Z,3.83
2018-05-14T13:03:01.690Z,3.00
2018-05-14T13:05:30.778Z,3.73
2018-05-14T13:07:59.112Z,3.20
2018-05-14T13:10:27.526Z,3.47
2018-05-14T13:12:55.863Z,3.60
2018-05-14T13:15:24.203Z,3.83
2018-05-14T13:17:52.509Z,3.10
2018-05-14T13:20:21.727Z,3.30
2018-05-14T13:22:50.059Z,3.70
2018-05-14T13:25:18.436Z,3.47
2018-05-14T13:27:46.877Z,3.60
2018-05-14T13:30:15.215Z,3.13
2018-05-14T13:32:43.550Z,3.03
2018-05-14T13:35:11.886Z,3.30
2018-05-14T13:37:41.159Z,3.20
2018-05-14T13:40:09.444Z,3.50
2018-05-14T13:42:37.761Z,3.37
2018-05-14T13:45:06.871Z,3.00
2018-05-14T13:47:35.235Z,3.47
2018-05-14T13:50:04.378Z,3.33
2018-05-14T13:52:34.147Z,3.40
2018-05-14T13:55:03.266Z,3.53
2018-05-14T13:57:31.639Z,3.40
2018-05-14T14:00:00.727Z,3.50
2018-05-14T14:02:29.056Z,3.10
2018-05-14T14:04:57.375Z,3.23
2018-05-14T14:07:25.714Z,3.33
2018-05-14T14:09:54.041Z,3.23
2018-05-14T14:12:22.408Z,3.30
2018-05-14T14:14:50.711Z,3.17
2018-05-14T14:17:19.068Z,3.53
2018-05-14T14:19:47.399Z,3.30
2018-05-14T14:22:16.530Z,3.00
2018-05-14T14:24:44.838Z,3.17
2018-05-14T14:27:13.260Z,2.73
2018-05-14T14:29:42.407Z,2.87
2018-05-14T14:32:10.680Z,2.90
2018-05-14T14:34:39.035Z,2.80
2018-05-14T14:37:08.770Z,2.50
2018-05-14T14:39:37.241Z,3.33
2018-05-14T14:42:07.266Z,2.93
2018-05-14T14:44:35.644Z,2.90
2018-05-14T14:47:03.997Z,3.00
2018-05-14T14:49:32.581Z,2.53
2018-05-14T14:52:01.654Z,2.90
2018-05-14T14:54:30.003Z,3.10
2018-05-14T14:56:58.626Z,2.70
2018-05-14T14:59:27.152Z,2.90
2018-05-14T15:01:55.483Z,2.90
2018-05-14T15:04:23.849Z,2.53
2018-05-14T15:06:52.275Z,3.00
2018-05-14T15:09:20.634Z,2.37
2018-05-14T15:11:48.994Z,2.97
2018-05-14T15:14:17.302Z,3.03
2018-05-14T15:16:45.636Z,2.70
2018-05-14T15:19:14.073Z,2.93
2018-05-14T15:21:42.445Z,2.47
2018-05-14T15:24:10.788Z,2.30
2018-05-14T15:26:39.168Z,2.50
2018-05-14T15:29:07.465Z,2.40
2018-05-14T15:31:35.842Z,2.90
2018-05-14T15:34:04.150Z,3.33
2018-05-14T15:36:32.539Z,3.07
2018-05-14T15:39:00.873Z,3.00
2018-05-14T15:41:29.223Z,3.27
2018-05-14T15:43:57.619Z,2.87
2018-05-14T15:46:26.705Z,2.80
2018-05-14T15:48:55.091Z,3.13
2018-05-14T15:51:23.407Z,2.90
2018-05-14T15:53:51.761Z,3.13
2018-05-14T15:56:20.061Z,2.63
2018-05-14T15:58:49.645Z,2.47
2018-05-14T16:01:18.781Z,3.10
2018-05-14T16:03:47.118Z,3.17
2018-05-14T16:06:15.477Z,3.00
2018-05-14T16:08:43.816Z,3.10
2018-05-14T16:11:12.907Z,3.10
2018-05-14T16:13:42.003Z,2.50
2018-05-14T16:16:11.096Z,2.50
2018-05-14T16:18:39.435Z,3.00
2018-05-14T16:21:07.794Z,2.50
2018-05-14T16:23:36.112Z,2.90
2018-05-14T16:26:04.453Z,3.10
2018-05-14T16:28:32.769Z,2.70
2018-05-14T16:31:01.105Z,2.37
2018-05-14T16:33:29.432Z,2.73
2018-05-14T16:35:57.742Z,2.50
2018-05-14T16:38:26.062Z,2.93
2018-05-14T16:40:54.393Z,2.87
2018-05-14T16:43:22.742Z,2.50
2018-05-14T16:45:51.055Z,2.47
2018-05-14T16:48:19.395Z,2.40
2018-05-14T16:50:48.443Z,2.13
2018-05-14T16:53:16.797Z,2.80
2018-05-14T16:55:45.131Z,2.60
2018-05-14T16:58:14.237Z,2.97
2018-05-14T17:00:42.557Z,2.90
2018-05-14T17:03:11.042Z,2.13
2018-05-14T17:05:39.429Z,2.53
2018-05-14T17:08:07.771Z,2.63
2018-05-14T17:10:36.466Z,2.87
2018-05-14T17:13:05.219Z,2.47
2018-05-14T17:15:34.495Z,2.90
2018-05-14T17:18:03.052Z,2.53
2018-05-14T17:20:32.397Z,2.50
2018-05-14T17:23:00.714Z,2.27
2018-05-14T17:25:29.055Z,2.63
2018-05-14T17:27:57.375Z,2.40
2018-05-14T17:30:26.479Z,2.50
2018-05-14T17:32:55.557Z,2.90
2018-05-14T17:35:23.912Z,2.60
2018-05-14T17:37:53.714Z,2.47
2018-05-14T17:40:22.972Z,2.40
2018-05-14T17:42:53.123Z,2.93
2018-05-14T17:45:22.462Z,2.67
2018-05-14T17:47:51.809Z,2.97
2018-05-14T17:50:20.295Z,2.90
2018-05-14T17:52:48.774Z,2.50
2018-05-14T17:55:17.157Z,2.93
2018-05-14T17:57:45.618Z,2.17
2018-05-14T18:00:13.961Z,2.40
2018-05-14T18:02:42.414Z,2.67
2018-05-14T18:05:11.587Z,2.50
2018-05-14T18:07:39.894Z,2.17
2018-05-14T18:10:08.985Z,2.57
2018-05-14T18:12:38.086Z,3.10
2018-05-14T18:15:07.182Z,2.40
2018-05-14T18:17:36.577Z,2.87
2018-05-14T18:20:10.428Z,2.80
2018-05-14T18:22:41.612Z,2.73
2018-05-14T18:25:16.382Z,2.47
2018-05-14T18:27:50.488Z,2.90
2018-05-14T18:30:25.347Z,2.60
2018-05-14T18:32:55.694Z,2.37
2018-05-14T18:35:24.076Z,2.93
2018-05-14T18:37:52.406Z,2.77
2018-05-14T18:40:20.846Z,3.10
2018-05-14T18:42:49.223Z,2.90
2018-05-14T18:45:17.609Z,2.60
2018-05-14T18:47:45.940Z,2.67
2018-05-14T18:50:15.082Z,3.03
2018-05-14T18:52:44.501Z,2.90
2018-05-14T18:55:13.530Z,3.03
2018-05-14T18:57:42.504Z,2.90
2018-05-14T19:00:11.114Z,2.40
2018-05-14T19:05:20.055Z,3.50
2018-05-14T19:07:48.972Z,2.77
2018-05-14T19:10:23.743Z,3.20
2018-05-14T19:12:54.291Z,3.20
2018-05-14T19:15:30.549Z,3.23
2018-05-14T19:18:00.419Z,2.50
2018-05-14T19:20:29.377Z,3.40
2018-05-14T19:23:04.118Z,3.13
2018-05-14T19:25:33.074Z,2.73
2018-05-14T19:31:05.499Z,4.07
2018-05-14T19:33:39.623Z,3.00
2018-05-14T19:36:08.240Z,3.43
2018-05-14T19:38:36.561Z,3.50
2018-05-14T19:41:05.222Z,3.70
2018-05-14T19:43:34.380Z,3.07
2018-05-14T19:46:03.226Z,3.40
2018-05-14T19:48:33.059Z,3.70
2018-05-14T19:51:03.945Z,3.73
2018-05-14T19:53:33.450Z,3.47
2018-05-14T19:56:02.813Z,3.37
2018-05-14T19:58:34.572Z,3.97
2018-05-14T20:01:03.619Z,4.17
2018-05-14T20:03:33.923Z,3.57
2018-05-14T20:06:03.784Z,3.20
2018-05-14T20:08:33.956Z,3.27
2018-05-14T20:11:02.808Z,3.50
2018-05-14T20:13:33.115Z,3.67
2018-05-14T20:16:03.084Z,3.30
2018-05-14T20:18:33.218Z,3.63
2018-05-14T20:21:01.676Z,3.50
2018-05-14T20:23:30.225Z,3.80
2018-05-14T20:25:58.558Z,3.77
2018-05-14T20:28:28.108Z,4.00
2018-05-14T20:30:56.463Z,3.87
2018-05-14T20:33:24.808Z,3.90
2018-05-14T20:35:53.145Z,3.83
2018-05-14T20:38:21.509Z,3.73
2018-05-14T20:40:50.764Z,3.77
2018-05-14T20:43:19.146Z,4.00
2018-05-14T20:45:47.453Z,3.87
2018-05-14T20:48:16.573Z,4.03
2018-05-14T20:50:45.684Z,3.77
2018-05-14T20:53:14.068Z,4.00
2018-05-14T20:55:42.387Z,3.63
2018-05-14T20:58:10.774Z,3.20
2018-05-14T21:00:39.073Z,4.07
2018-05-14T21:03:07.410Z,4.53
2018-05-14T21:05:35.808Z,3.50
2018-05-14T21:08:04.839Z,3.77
2018-05-14T21:10:33.219Z,3.47
2018-05-14T21:13:01.534Z,3.70
2018-05-14T21:15:30.674Z,4.00
2018-05-14T21:17:58.997Z,3.97
2018-05-14T21:20:27.319Z,3.80
2018-05-14T21:22:55.635Z,3.80
2018-05-14T21:25:24.027Z,5.23
2018-05-14T21:27:52.329Z,5.80
2018-05-14T21:30:21.483Z,4.47
2018-05-14T21:32:49.813Z,3.97
2018-05-14T21:35:18.154Z,4.43
2018-05-14T21:37:46.542Z,3.97
2018-05-14T21:40:14.846Z,3.90
2018-05-14T21:42:43.326Z,3.80
2018-05-14T21:45:13.151Z,4.25
2018-05-14T21:47:42.213Z,3.70
2018-05-14T21:50:10.516Z,3.97
2018-05-14T21:52:38.981Z,3.83
2018-05-14T21:55:08.071Z,4.47
2018-05-14T21:57:36.399Z,3.93
2018-05-14T22:00:05.469Z,3.97
2018-05-14T22:02:34.841Z,4.13
2018-05-14T22:05:03.172Z,4.10
2018-05-14T22:07:31.501Z,4.20
2018-05-14T22:09:59.834Z,3.93
2018-05-14T22:12:28.151Z,4.00
2018-05-14T22:14:56.888Z,4.60
2018-05-14T22:17:25.210Z,4.40
2018-05-14T22:19:54.283Z,4.20
2018-05-14T22:22:22.637Z,4.47
2018-05-14T22:24:50.957Z,4.50
2018-05-14T22:27:20.061Z,4.50
2018-05-14T22:29:49.210Z,4.50
2018-05-14T22:32:17.549Z,4.10
2018-05-14T22:34:47.633Z,4.27
2018-05-14T22:37:15.945Z,4.73
2018-05-14T22:39:45.040Z,4.20
2018-05-14T22:42:14.126Z,4.67
2018-05-14T22:44:42.467Z,4.00
2018-05-14T22:47:10.768Z,4.40
2018-05-14T22:49:39.123Z,4.63
2018-05-14T22:52:07.427Z,4.43
2018-05-14T22:54:36.694Z,4.63
2018-05-14T22:57:05.077Z,4.33
2018-05-14T22:59:33.399Z,4.43
2018-05-14T23:02:01.723Z,4.60
2018-05-14T23:04:30.032Z,4.40
2018-05-14T23:06:58.380Z,4.53
2018-05-14T23:09:28.172Z,4.70
2018-05-14T23:11:56.511Z,4.50
2018-05-14T23:14:24.823Z,4.37
2018-05-14T23:16:53.170Z,4.43
2018-05-14T23:19:22.505Z,4.60
2018-05-14T23:21:51.000Z,4.47
2018-05-14T23:24:20.699Z,4.70
2018-05-14T23:26:49.199Z,4.57
2018-05-14T23:29:17.501Z,4.73
2018-05-14T23:31:46.597Z,4.67
2018-05-14T23:34:15.869Z,4.70
2018-05-14T23:36:44.197Z,4.70
2018-05-14T23:39:13.885Z,4.47
2018-05-14T23:41:42.480Z,4.57
2018-05-14T23:44:10.785Z,4.90
2018-05-14T23:46:39.104Z,5.10
2018-05-14T23:49:07.491Z,4.77
2018-05-14T23:51:35.814Z,4.80
2018-05-14T23:54:04.908Z,4.37
2018-05-14T23:56:33.223Z,4.60
2018-05-14T23:59:01.561Z,4.40
